createdAt,value
2019-03-17T00:02:15.931Z,99529.73
2019-03-17T00:08:21.831Z,99511.61
2019-03-17T00:14:27.523Z,99506.76
2019-03-17T00:20:33.288Z,99492.70
2019-03-17T00:26:39.165Z,99484.36
2019-03-17T00:32:44.941Z,99483.03
2019-03-17T00:38:50.688Z,99485.72
2019-03-17T00:44:56.446Z,99469.84
2019-03-17T00:51:02.253Z,99478.22
2019-03-17T00:57:08.118Z,99462.92
2019-03-17T01:03:13.892Z,99463.42
2019-03-17T01:09:19.607Z,99448.51
2019-03-17T01:15:25.727Z,99437.98
2019-03-17T01:21:31.616Z,99422.33
2019-03-17T01:27:37.417Z,99405.08
2019-03-17T01:33:43.148Z,99394.09
2019-03-17T01:39:48.901Z,99398.41
2019-03-17T01:45:54.670Z,99388.81
2019-03-17T01:52:00.550Z,99389.92
2019-03-17T01:58:06.398Z,99386.36
2019-03-17T02:04:12.400Z,99389.28
2019-03-17T02:10:18.362Z,99397.09
2019-03-17T02:16:24.193Z,99372.49
2019-03-17T02:22:29.966Z,99382.16
2019-03-17T02:28:35.857Z,99365.01
2019-03-17T02:34:41.648Z,99333.50
2019-03-17T02:40:47.441Z,99323.37
2019-03-17T02:46:53.257Z,99310.87
2019-03-17T02:52:59.132Z,99311.44
2019-03-17T02:59:04.889Z,99301.78
2019-03-17T03:05:11.328Z,99290.23
2019-03-17T03:11:17.123Z,99286.23
2019-03-17T03:17:22.859Z,99274.30
2019-03-17T03:23:28.582Z,99272.02
2019-03-17T03:29:34.479Z,99271.80
2019-03-17T03:35:40.190Z,99279.22
2019-03-17T03:41:45.903Z,99272.53
2019-03-17T03:47:51.657Z,99291.81
2019-03-17T03:53:57.352Z,99285.55
2019-03-17T04:00:03.066Z,99278.63
2019-03-17T04:06:08.761Z,99275.67
2019-03-17T04:12:14.513Z,99277.59
2019-03-17T04:18:20.525Z,99269.86
2019-03-17T04:24:26.276Z,99264.70
2019-03-17T04:30:32.055Z,99264.27
2019-03-17T04:36:40.545Z,99259.42
2019-03-17T04:42:45.340Z,99254.52
2019-03-17T04:48:51.163Z,99265.16
2019-03-17T04:54:56.935Z,99272.74
2019-03-17T05:01:02.744Z,99273.77
2019-03-17T05:07:08.436Z,99293.77
2019-03-17T05:13:14.164Z,99292.45
2019-03-17T05:19:19.904Z,99282.80
2019-03-17T05:25:25.656Z,99268.59
2019-03-17T05:31:31.491Z,99275.03
2019-03-17T05:37:37.212Z,99275.77
2019-03-17T05:43:42.983Z,99286.42
2019-03-17T05:49:48.677Z,99281.39
2019-03-17T05:55:54.380Z,99290.66
2019-03-17T06:02:00.069Z,99280.20
2019-03-17T06:08:05.791Z,99299.16
2019-03-17T06:14:11.527Z,99313.36
2019-03-17T06:20:17.265Z,99323.54
2019-03-17T06:26:23.035Z,99321.39
2019-03-17T06:32:28.788Z,99318.45
2019-03-17T06:38:34.531Z,99317.63
2019-03-17T06:44:40.257Z,99323.77
2019-03-17T06:50:46.044Z,99334.77
2019-03-17T06:56:51.811Z,99348.38
2019-03-17T07:02:57.551Z,99355.80
2019-03-17T07:09:04.470Z,99371.17
2019-03-17T07:15:10.296Z,99376.92
2019-03-17T07:21:16.085Z,99391.41
2019-03-17T07:27:21.834Z,99397.13
2019-03-17T07:33:27.585Z,99427.58
2019-03-17T07:39:33.616Z,99490.25
2019-03-17T07:45:39.582Z,99494.27
2019-03-17T07:51:45.577Z,99516.20
2019-03-17T07:57:51.478Z,99521.56
2019-03-17T08:03:57.322Z,99518.48
2019-03-17T08:10:03.082Z,99509.18
2019-03-17T08:16:08.774Z,99527.39
2019-03-17T08:22:14.566Z,99529.70
2019-03-17T08:28:20.361Z,99549.29
2019-03-17T08:34:26.277Z,99551.91
2019-03-17T08:40:32.108Z,99559.58
2019-03-17T08:46:37.912Z,99563.46
2019-03-17T08:52:43.916Z,99573.27
2019-03-17T08:58:49.722Z,99594.84
2019-03-17T09:04:55.579Z,99587.95
2019-03-17T09:11:01.271Z,99603.47
2019-03-17T09:17:14.413Z,99601.37
2019-03-17T09:23:14.541Z,99591.48
2019-03-17T09:29:20.359Z,99610.11
2019-03-17T09:35:26.093Z,99605.90
2019-03-17T09:41:31.826Z,99592.10
2019-03-17T09:47:37.640Z,99604.74
2019-03-17T09:53:43.405Z,99591.20
2019-03-17T09:59:49.241Z,99598.16
2019-03-17T10:05:55.009Z,99613.41
2019-03-17T10:12:00.832Z,99624.28
2019-03-17T10:18:06.741Z,99629.18
2019-03-17T10:24:12.506Z,99640.17
2019-03-17T10:30:18.807Z,99669.59
2019-03-17T10:36:24.755Z,99702.09
2019-03-17T10:42:30.512Z,99690.17
2019-03-17T10:48:36.366Z,99701.47
2019-03-17T10:54:42.262Z,99699.56
2019-03-17T11:00:47.988Z,99720.39
2019-03-17T11:06:53.901Z,99713.29
2019-03-17T11:12:59.689Z,99714.30
2019-03-17T11:19:05.479Z,99717.69
2019-03-17T11:25:11.467Z,99723.30
2019-03-17T11:31:17.221Z,99745.52
2019-03-17T11:37:23.693Z,99773.31
2019-03-17T11:43:30.764Z,99764.41
2019-03-17T11:49:36.857Z,99769.49
2019-03-17T11:55:42.578Z,99768.44
2019-03-17T12:01:48.379Z,99779.63
2019-03-17T12:07:54.370Z,99772.64
2019-03-17T12:14:02.082Z,99773.48
2019-03-17T12:20:09.110Z,99787.69
2019-03-17T12:26:14.937Z,99792.83
2019-03-17T12:32:21.134Z,99802.39
2019-03-17T12:38:26.899Z,99799.69
2019-03-17T12:44:32.884Z,99796.81
2019-03-17T12:50:38.639Z,99807.03
2019-03-17T12:56:44.476Z,99818.34
2019-03-17T13:02:50.427Z,99829.94
2019-03-17T13:08:56.287Z,99844.39
2019-03-17T13:15:02.367Z,99852.00
2019-03-17T13:21:08.280Z,99854.20
2019-03-17T13:27:14.231Z,99864.03
2019-03-17T13:33:20.042Z,99929.33
2019-03-17T13:39:25.926Z,99919.15
2019-03-17T13:45:31.718Z,99914.09
2019-03-17T13:51:37.664Z,99933.88
2019-03-17T13:57:44.234Z,99917.08
2019-03-17T14:03:50.054Z,99904.55
2019-03-17T14:09:56.022Z,99906.50
2019-03-17T14:16:01.976Z,99917.00
2019-03-17T14:22:07.849Z,99968.88
2019-03-17T14:28:13.837Z,99958.52
2019-03-17T14:34:19.901Z,99954.20
2019-03-17T14:40:25.735Z,99967.00
2019-03-17T14:46:31.464Z,99971.15
2019-03-17T14:52:38.137Z,99977.14
2019-03-17T14:58:43.943Z,99972.80
2019-03-17T15:04:49.761Z,99974.06
2019-03-17T15:11:05.344Z,99997.28
2019-03-17T15:17:03.077Z,99993.97
2019-03-17T15:23:09.269Z,100002.55
2019-03-17T15:29:17.061Z,99998.99
2019-03-17T15:35:22.821Z,100002.53
2019-03-17T15:41:28.798Z,100009.49
2019-03-17T15:47:34.605Z,100009.52
2019-03-17T15:53:40.616Z,100015.69
2019-03-17T15:59:48.592Z,100022.20
2019-03-17T16:05:54.392Z,100020.03
2019-03-17T16:12:00.590Z,100020.54
2019-03-17T16:18:06.405Z,100029.30
2019-03-17T16:24:12.402Z,100088.20
2019-03-17T16:30:21.081Z,100082.08
2019-03-17T16:36:26.983Z,100080.92
2019-03-17T16:42:33.092Z,100091.39
2019-03-17T16:48:38.849Z,100114.20
2019-03-17T16:54:44.611Z,100117.30
2019-03-17T17:00:50.374Z,100120.38
2019-03-17T17:06:56.158Z,100129.11
2019-03-17T17:13:02.190Z,100135.64
2019-03-17T17:19:08.177Z,100135.20
2019-03-17T17:25:14.000Z,100132.58
2019-03-17T17:31:20.117Z,100152.28
2019-03-17T17:37:26.030Z,100168.44
2019-03-17T17:43:31.976Z,100172.44
2019-03-17T17:49:37.744Z,100184.70
2019-03-17T17:55:43.531Z,100209.20
2019-03-17T18:01:49.342Z,100220.58
2019-03-17T18:07:55.463Z,100235.44
2019-03-17T18:14:01.305Z,100238.08
2019-03-17T18:20:08.185Z,100251.62
2019-03-17T18:26:14.067Z,100259.52
2019-03-17T18:32:20.140Z,100258.65
2019-03-17T18:38:26.005Z,100272.17
2019-03-17T18:44:32.417Z,100300.16
2019-03-17T18:50:38.334Z,100313.25
2019-03-17T18:56:44.535Z,100323.23
2019-03-17T19:02:50.603Z,100337.62
2019-03-17T19:08:56.624Z,100343.20
2019-03-17T19:15:02.503Z,100351.87
2019-03-17T19:21:08.645Z,100358.33
2019-03-17T19:27:14.470Z,100372.25
2019-03-17T19:33:20.304Z,100394.81
2019-03-17T19:39:26.342Z,100391.68
2019-03-17T19:45:32.376Z,100403.88
2019-03-17T19:51:38.975Z,100413.02
2019-03-17T19:57:44.921Z,100413.50
2019-03-17T20:03:50.985Z,100404.63
2019-03-17T20:09:56.906Z,100418.42
2019-03-17T20:16:02.913Z,100424.38
2019-03-17T20:22:08.817Z,100442.66
2019-03-17T20:28:15.019Z,100455.55
2019-03-17T20:34:20.831Z,100466.70
2019-03-17T20:40:26.669Z,100479.62
2019-03-17T20:46:32.778Z,100479.91
2019-03-17T20:52:38.792Z,100488.06
2019-03-17T20:58:44.689Z,100506.25
2019-03-17T21:04:50.657Z,100507.06
2019-03-17T21:10:56.460Z,100503.48
2019-03-17T21:17:02.325Z,100506.96
2019-03-17T21:23:08.111Z,100516.47
2019-03-17T21:29:14.259Z,100518.58
2019-03-17T21:35:21.013Z,100528.21
2019-03-17T21:41:27.811Z,100535.64
2019-03-17T21:47:33.819Z,100554.39
2019-03-17T21:53:39.598Z,100550.57
2019-03-17T21:59:45.481Z,100554.31
2019-03-17T22:05:51.325Z,100554.72
2019-03-17T22:11:57.124Z,100562.87
2019-03-17T22:18:02.916Z,100562.44
2019-03-17T22:24:08.698Z,100571.50
2019-03-17T22:30:14.899Z,100577.09
2019-03-17T22:36:20.660Z,100582.66
2019-03-17T22:42:26.601Z,100577.80
2019-03-17T22:48:32.399Z,100598.60
2019-03-17T22:54:38.261Z,100592.08
2019-03-17T23:00:45.397Z,100605.84
2019-03-17T23:06:51.130Z,100603.94
2019-03-17T23:12:56.927Z,100610.86
2019-03-17T23:19:02.700Z,100612.47
2019-03-17T23:25:09.002Z,100621.03
2019-03-17T23:31:14.800Z,100609.64
2019-03-17T23:37:20.575Z,100621.73
2019-03-17T23:43:26.293Z,100619.95
2019-03-17T23:49:32.112Z,100615.52
2019-03-17T23:55:37.806Z,100621.94
